createdAt,value
2019-03-24T00:01:40.669Z,51.70
2019-03-24T00:04:01.138Z,51.60
2019-03-24T00:06:29.613Z,51.70
2019-03-24T00:08:58.147Z,51.60
2019-03-24T00:11:26.583Z,51.90
2019-03-24T00:13:55.028Z,52.10
2019-03-24T00:16:23.467Z,52.00
2019-03-24T00:18:51.951Z,52.00
2019-03-24T00:21:20.502Z,52.60
2019-03-24T00:23:48.922Z,53.20
2019-03-24T00:26:17.359Z,53.50
2019-03-24T00:28:45.793Z,53.20
2019-03-24T05:31:58.544Z,57.10
2019-03-24T05:34:26.977Z,57.50
2019-03-24T05:36:55.394Z,57.50
2019-03-24T05:39:23.820Z,57.90
2019-03-24T05:41:52.271Z,58.10
2019-03-24T05:44:20.684Z,58.50
2019-03-24T05:46:49.186Z,58.50
2019-03-24T05:49:17.614Z,58.80
2019-03-24T05:51:46.038Z,58.90
2019-03-24T05:54:14.460Z,59.10
2019-03-24T05:56:43.255Z,59.00
2019-03-24T05:59:11.684Z,59.00
2019-03-24T06:01:40.112Z,58.90
2019-03-24T06:04:08.608Z,58.60
2019-03-24T06:06:37.035Z,58.40
2019-03-24T06:09:06.333Z,58.20
2019-03-24T06:11:34.828Z,58.20
2019-03-24T06:14:03.251Z,58.50
2019-03-24T06:16:31.836Z,58.30
2019-03-24T06:19:00.491Z,57.90
2019-03-24T06:21:28.924Z,57.70
2019-03-24T06:23:57.353Z,57.60
2019-03-24T06:26:26.663Z,57.90
2019-03-24T06:28:55.144Z,57.70
2019-03-24T06:31:23.573Z,57.40
2019-03-24T06:33:52.036Z,57.30
2019-03-24T06:36:20.595Z,57.10
2019-03-24T06:38:49.045Z,56.70
2019-03-24T06:41:17.487Z,56.40
2019-03-24T06:43:45.976Z,56.10
2019-03-24T06:46:15.091Z,55.90
2019-03-24T06:48:43.715Z,55.80
2019-03-24T06:51:12.241Z,55.70
2019-03-24T06:53:40.676Z,55.90
2019-03-24T06:56:09.143Z,55.90
2019-03-24T06:58:37.584Z,55.70
2019-03-24T07:01:06.018Z,55.50
2019-03-24T07:03:34.453Z,55.20
2019-03-24T07:06:02.900Z,54.80
2019-03-24T07:08:31.432Z,54.30
2019-03-24T07:10:59.951Z,54.10
2019-03-24T07:13:28.387Z,53.50
2019-03-24T07:15:56.995Z,53.00
2019-03-24T07:18:25.432Z,52.50
2019-03-24T07:20:54.014Z,51.90
2019-03-24T07:23:22.704Z,51.10
2019-03-24T07:25:51.480Z,49.80
2019-03-24T07:28:19.947Z,49.20
2019-03-24T07:30:48.394Z,48.80
2019-03-24T07:33:16.833Z,48.60
2019-03-24T07:35:45.274Z,48.20
2019-03-24T07:38:13.715Z,47.70
2019-03-24T07:40:42.166Z,47.00
2019-03-24T07:43:10.748Z,46.50
2019-03-24T07:45:39.189Z,45.60
2019-03-24T07:48:07.642Z,44.70
2019-03-24T07:50:36.192Z,44.30
2019-03-24T07:53:04.645Z,43.70
2019-03-24T07:55:33.188Z,43.50
2019-03-24T07:58:01.635Z,43.50
2019-03-24T08:00:35.352Z,42.20
2019-03-24T08:03:03.794Z,41.10
2019-03-24T08:05:32.248Z,39.90
2019-03-24T08:08:00.739Z,38.30
2019-03-24T08:10:29.234Z,36.70
2019-03-24T08:12:57.765Z,35.80
2019-03-24T08:15:26.392Z,34.50
2019-03-24T08:17:54.850Z,33.30
2019-03-24T08:20:23.311Z,32.20
2019-03-24T08:22:51.762Z,31.40
2019-03-24T08:25:20.299Z,30.50
2019-03-24T08:27:48.804Z,29.80
2019-03-24T08:30:20.422Z,28.90
2019-03-24T08:32:48.895Z,28.30
2019-03-24T08:35:17.341Z,27.70
2019-03-24T08:37:45.828Z,27.10
2019-03-24T08:40:14.275Z,26.80
2019-03-24T08:42:42.723Z,26.20
2019-03-24T08:45:14.297Z,25.90
2019-03-24T08:47:42.744Z,25.40
2019-03-24T08:50:11.327Z,24.70
2019-03-24T08:52:39.777Z,24.50
2019-03-24T08:55:08.211Z,24.40
2019-03-24T08:57:36.704Z,24.00
2019-03-24T09:00:06.865Z,24.30
2019-03-24T09:02:35.311Z,23.70
2019-03-24T09:05:05.282Z,23.90
2019-03-24T09:07:33.727Z,23.60
2019-03-24T09:10:02.273Z,24.20
2019-03-24T09:12:31.313Z,24.20
2019-03-24T09:14:59.978Z,24.10
2019-03-24T09:17:28.454Z,23.70
2019-03-24T09:19:56.952Z,23.20
2019-03-24T09:22:25.404Z,23.10
2019-03-24T09:24:53.833Z,22.80
2019-03-24T09:27:22.263Z,22.50
2019-03-24T09:29:50.709Z,22.40
2019-03-24T09:32:19.157Z,22.10
2019-03-24T09:34:47.597Z,22.10
2019-03-24T09:37:16.040Z,22.10
2019-03-24T09:39:44.466Z,22.10
2019-03-24T09:42:12.905Z,22.10
2019-03-24T09:44:41.340Z,21.60
2019-03-24T09:47:09.801Z,21.10
2019-03-24T09:49:38.242Z,21.20
2019-03-24T09:52:06.666Z,20.30
2019-03-24T09:54:35.134Z,20.30
2019-03-24T09:57:03.555Z,20.30
2019-03-24T09:59:31.993Z,20.90
2019-03-24T10:02:00.419Z,20.80
2019-03-24T10:04:28.857Z,20.30
2019-03-24T10:06:57.407Z,20.30
2019-03-24T10:09:25.855Z,20.50
2019-03-24T10:11:54.284Z,20.50
2019-03-24T10:14:22.744Z,20.90
2019-03-24T10:16:51.172Z,21.40
2019-03-24T10:19:19.636Z,21.80
2019-03-24T10:21:48.072Z,21.30
2019-03-24T10:24:16.606Z,21.00
2019-03-24T10:26:45.102Z,20.50
2019-03-24T10:29:13.536Z,20.50
2019-03-24T10:31:42.687Z,20.10
2019-03-24T10:34:11.215Z,20.10
2019-03-24T10:36:39.659Z,20.40
2019-03-24T10:39:08.091Z,20.80
2019-03-24T10:41:36.541Z,20.80
2019-03-24T10:44:04.982Z,20.80
2019-03-24T10:46:33.494Z,20.90
2019-03-24T10:49:01.949Z,21.60
2019-03-24T10:51:30.385Z,21.60
2019-03-24T10:53:58.865Z,22.60
2019-03-24T10:56:27.351Z,22.30
2019-03-24T10:58:55.796Z,22.10
2019-03-24T11:01:24.239Z,22.10
2019-03-24T11:03:52.673Z,22.40
2019-03-24T11:06:21.109Z,22.50
2019-03-24T11:08:49.570Z,23.00
2019-03-24T11:11:18.049Z,23.70
2019-03-24T11:13:46.494Z,24.20
2019-03-24T11:16:14.918Z,24.20
2019-03-24T11:18:43.343Z,24.70
2019-03-24T11:21:11.779Z,24.80
2019-03-24T11:23:40.204Z,24.70
2019-03-24T11:26:08.666Z,24.00
2019-03-24T11:28:37.084Z,24.20
2019-03-24T11:31:05.596Z,24.70
2019-03-24T11:33:34.024Z,24.00
2019-03-24T11:36:04.530Z,24.70
2019-03-24T11:38:33.017Z,25.00
2019-03-24T11:41:01.456Z,24.80
2019-03-24T11:43:29.882Z,25.20
2019-03-24T11:45:58.458Z,25.50
2019-03-24T11:48:26.931Z,26.10
2019-03-24T11:50:55.368Z,26.70
2019-03-24T11:53:23.820Z,26.60
2019-03-24T11:55:52.264Z,26.90
2019-03-24T11:58:20.719Z,26.90
2019-03-24T12:00:49.172Z,27.10
2019-03-24T12:03:17.604Z,27.90
2019-03-24T12:05:46.080Z,28.40
2019-03-24T12:08:14.581Z,27.90
2019-03-24T12:10:43.089Z,27.00
2019-03-24T12:13:11.560Z,26.70
2019-03-24T12:15:40.054Z,26.30
2019-03-24T12:18:08.488Z,26.30
2019-03-24T12:20:36.936Z,25.80
2019-03-24T12:23:05.373Z,26.60
2019-03-24T12:25:33.808Z,25.40
2019-03-24T12:28:02.251Z,25.70
2019-03-24T12:30:30.687Z,26.20
2019-03-24T12:32:59.191Z,26.80
2019-03-24T12:35:27.631Z,26.20
2019-03-24T12:37:56.055Z,26.90
2019-03-24T12:40:24.507Z,27.20
2019-03-24T12:42:52.947Z,26.40
2019-03-24T12:45:21.460Z,26.90
2019-03-24T12:47:50.038Z,28.30
2019-03-24T12:50:18.574Z,28.00
2019-03-24T12:52:47.023Z,28.10
2019-03-24T12:55:15.552Z,28.40
2019-03-24T12:57:44.461Z,28.50
2019-03-24T13:00:15.911Z,29.00
2019-03-24T13:02:44.344Z,28.30
2019-03-24T13:05:13.709Z,28.20
2019-03-24T13:07:42.228Z,28.20
2019-03-24T13:10:11.229Z,27.60
2019-03-24T13:12:39.779Z,27.80
2019-03-24T13:15:09.054Z,27.30
2019-03-24T13:17:40.992Z,28.20
2019-03-24T13:20:20.200Z,28.00
2019-03-24T13:22:39.614Z,28.20
2019-03-24T13:25:08.210Z,28.00
2019-03-24T13:27:36.717Z,27.60
2019-03-24T13:30:07.264Z,27.70
2019-03-24T13:32:35.701Z,27.20
2019-03-24T13:35:04.824Z,26.70
2019-03-24T13:37:33.324Z,27.40
2019-03-24T13:40:01.851Z,27.00
2019-03-24T13:42:30.369Z,27.20
2019-03-24T13:44:58.800Z,26.90
2019-03-24T13:47:27.245Z,25.60
2019-03-24T13:49:55.689Z,26.20
2019-03-24T13:52:24.212Z,26.10
2019-03-24T13:54:52.639Z,25.80
2019-03-24T13:57:21.096Z,25.10
2019-03-24T13:59:49.681Z,25.50
2019-03-24T14:02:18.283Z,25.80
2019-03-24T14:04:47.623Z,26.10
2019-03-24T14:07:16.212Z,26.50
2019-03-24T14:09:44.648Z,26.40
2019-03-24T14:12:13.251Z,26.50
2019-03-24T14:14:41.759Z,26.80
2019-03-24T14:17:10.189Z,26.40
2019-03-24T14:19:38.689Z,26.40
2019-03-24T14:22:07.141Z,26.30
2019-03-24T14:24:35.584Z,26.80
2019-03-24T14:27:04.112Z,26.80
2019-03-24T14:29:32.662Z,26.90
2019-03-24T14:32:01.099Z,26.60
2019-03-24T14:34:29.545Z,26.10
2019-03-24T14:36:58.140Z,26.30
2019-03-24T14:39:26.577Z,26.60
2019-03-24T14:41:55.787Z,26.80
2019-03-24T14:44:24.326Z,26.60
2019-03-24T14:46:52.764Z,25.90
2019-03-24T14:49:21.198Z,26.00
2019-03-24T14:51:49.621Z,26.50
2019-03-24T14:54:18.116Z,26.40
2019-03-24T14:56:46.582Z,25.60
2019-03-24T14:59:15.058Z,25.80
2019-03-24T15:01:43.571Z,25.90
2019-03-24T15:04:12.262Z,25.80
2019-03-24T15:06:40.686Z,25.50
2019-03-24T15:09:09.312Z,25.60
2019-03-24T15:11:38.584Z,25.10
2019-03-24T15:14:07.194Z,25.00
2019-03-24T15:16:35.696Z,24.80
2019-03-24T15:19:04.382Z,24.30
2019-03-24T15:21:32.841Z,23.90
2019-03-24T15:24:01.290Z,21.00
2019-03-24T15:26:29.721Z,19.70
2019-03-24T15:28:58.239Z,19.50
2019-03-24T15:31:26.695Z,19.40
2019-03-24T15:33:55.136Z,19.60
2019-03-24T15:36:23.585Z,20.20
2019-03-24T15:38:52.047Z,22.00
2019-03-24T15:41:20.467Z,21.60
2019-03-24T15:43:49.310Z,20.10
2019-03-24T15:46:17.753Z,19.60
2019-03-24T15:48:46.212Z,19.70
2019-03-24T15:51:17.165Z,19.50
2019-03-24T15:53:44.923Z,18.70
2019-03-24T15:56:13.539Z,19.20
2019-03-24T15:58:41.998Z,19.00
2019-03-24T16:01:10.461Z,19.10
2019-03-24T16:03:39.014Z,19.80
2019-03-24T16:06:07.552Z,20.30
2019-03-24T16:08:36.101Z,21.10
2019-03-24T16:11:04.603Z,21.40
2019-03-24T16:13:33.075Z,21.40
2019-03-24T16:16:03.215Z,21.20
2019-03-24T16:18:31.668Z,21.50
2019-03-24T16:21:00.119Z,21.90
2019-03-24T16:23:28.562Z,22.50
2019-03-24T16:25:57.052Z,23.10
2019-03-24T16:28:25.625Z,25.00
2019-03-24T16:30:54.162Z,25.30
2019-03-24T16:33:22.746Z,26.20
2019-03-24T16:35:51.278Z,26.00
2019-03-24T16:38:19.968Z,26.10
2019-03-24T16:40:48.459Z,26.40
2019-03-24T16:43:17.001Z,26.60
2019-03-24T16:45:47.315Z,26.70
2019-03-24T16:48:15.635Z,27.10
2019-03-24T16:50:44.152Z,28.00
2019-03-24T16:53:12.602Z,27.50
2019-03-24T16:55:41.132Z,27.80
2019-03-24T16:58:09.640Z,28.20
2019-03-24T17:00:38.075Z,28.40
2019-03-24T17:03:06.520Z,29.10
2019-03-24T17:05:34.972Z,29.40
2019-03-24T17:08:03.422Z,29.50
2019-03-24T17:10:31.899Z,30.00
2019-03-24T17:13:00.513Z,30.00
2019-03-24T17:15:29.014Z,30.20
2019-03-24T17:17:57.572Z,30.80
2019-03-24T17:20:26.050Z,31.50
2019-03-24T17:22:54.545Z,31.90
2019-03-24T17:25:23.072Z,32.10
2019-03-24T17:27:51.553Z,32.30
2019-03-24T17:30:20.384Z,32.50
2019-03-24T17:32:48.837Z,32.70
2019-03-24T17:35:17.384Z,32.80
2019-03-24T17:37:45.876Z,33.50
2019-03-24T17:40:14.745Z,33.70
2019-03-24T17:42:43.243Z,33.80
2019-03-24T17:45:12.540Z,34.60
2019-03-24T17:47:41.254Z,34.30
2019-03-24T17:50:12.071Z,34.70
2019-03-24T17:52:40.797Z,34.80
2019-03-24T17:55:10.121Z,35.20
2019-03-24T17:57:38.737Z,35.70
2019-03-24T18:00:09.785Z,35.90
2019-03-24T18:02:38.321Z,35.80
2019-03-24T18:05:07.841Z,36.20
2019-03-24T18:07:36.391Z,36.20
2019-03-24T18:10:06.409Z,36.60
2019-03-24T18:12:34.947Z,36.80
2019-03-24T18:15:04.635Z,36.90
2019-03-24T18:17:33.129Z,37.20
2019-03-24T18:20:01.724Z,37.50
2019-03-24T18:22:30.264Z,37.90
2019-03-24T18:24:58.755Z,38.20
2019-03-24T18:27:27.241Z,39.40
2019-03-24T18:29:55.705Z,39.70
2019-03-24T18:32:24.341Z,40.10
2019-03-24T18:34:53.033Z,40.30
2019-03-24T18:37:21.513Z,40.40
2019-03-24T18:39:50.195Z,40.90
2019-03-24T18:42:18.717Z,41.40
2019-03-24T18:44:47.152Z,41.30
2019-03-24T18:47:15.591Z,41.70
2019-03-24T18:49:44.068Z,42.10
2019-03-24T18:52:22.319Z,42.30
2019-03-24T18:54:42.696Z,42.40
2019-03-24T18:57:11.155Z,43.10
2019-03-24T18:59:39.691Z,42.60
2019-03-24T19:02:08.192Z,42.90
2019-03-24T19:04:36.658Z,43.10
2019-03-24T19:07:05.106Z,43.20
2019-03-24T19:09:33.617Z,43.60
2019-03-24T19:12:02.076Z,44.00
2019-03-24T19:14:30.574Z,44.30
2019-03-24T19:16:59.110Z,44.90
2019-03-24T19:19:27.646Z,44.50
2019-03-24T19:21:56.103Z,44.80
2019-03-24T19:24:24.666Z,45.00
2019-03-24T19:26:53.243Z,45.30
2019-03-24T19:29:21.782Z,45.60
2019-03-24T19:31:50.306Z,46.00
2019-03-24T19:34:18.923Z,46.00
2019-03-24T19:36:49.057Z,46.40
2019-03-24T19:39:17.588Z,46.40
2019-03-24T19:41:46.134Z,46.50
2019-03-24T19:44:15.102Z,47.00
2019-03-24T19:46:43.889Z,46.90
2019-03-24T19:49:14.979Z,47.00
2019-03-24T19:51:44.231Z,47.60
2019-03-24T19:54:12.764Z,48.20
2019-03-24T19:56:41.807Z,48.70
2019-03-24T19:59:10.298Z,48.60
2019-03-24T20:01:38.750Z,48.90
2019-03-24T20:04:07.199Z,48.90
2019-03-24T20:06:35.696Z,48.70
2019-03-24T20:09:07.527Z,48.50
2019-03-24T20:11:36.163Z,48.60
2019-03-24T20:14:04.721Z,48.50
2019-03-24T20:16:33.254Z,48.70
2019-03-24T20:19:03.707Z,49.40
2019-03-24T20:21:32.464Z,48.90
2019-03-24T20:24:01.087Z,49.10
2019-03-24T20:26:30.080Z,49.10
2019-03-24T20:28:58.569Z,49.20
2019-03-24T20:31:27.119Z,49.70
2019-03-24T20:33:55.699Z,49.60
2019-03-24T20:36:24.262Z,49.50
2019-03-24T20:38:52.806Z,49.50
2019-03-24T20:41:21.778Z,49.20
2019-03-24T20:43:50.239Z,49.00
2019-03-24T20:46:19.076Z,49.00
2019-03-24T20:48:47.626Z,49.00
2019-03-24T20:51:16.186Z,49.50
2019-03-24T20:53:44.723Z,49.50
2019-03-24T20:56:13.168Z,49.70
2019-03-24T20:58:41.615Z,49.80
2019-03-24T21:01:10.072Z,49.80
2019-03-24T21:03:38.514Z,49.80
2019-03-24T21:06:06.957Z,49.60
2019-03-24T21:08:35.392Z,49.50
2019-03-24T21:11:03.874Z,49.80
2019-03-24T21:13:32.327Z,50.20
2019-03-24T21:16:00.850Z,50.50
2019-03-24T21:18:29.357Z,50.70
2019-03-24T21:20:57.828Z,50.90
2019-03-24T21:23:29.736Z,51.40
2019-03-24T21:25:56.462Z,52.10
2019-03-24T21:28:24.915Z,52.60
2019-03-24T21:30:53.391Z,53.20
2019-03-24T21:33:21.851Z,53.70
2019-03-24T21:35:50.427Z,53.40
2019-03-24T21:38:18.946Z,53.40
2019-03-24T21:40:48.970Z,53.40
2019-03-24T21:43:17.451Z,53.40
2019-03-24T21:45:45.884Z,54.80
2019-03-24T21:48:14.369Z,54.70
2019-03-24T21:50:42.800Z,54.60
2019-03-24T21:53:11.248Z,54.80
2019-03-24T21:55:39.686Z,54.90
2019-03-24T21:58:08.144Z,55.30
2019-03-24T22:00:37.535Z,55.30
2019-03-24T22:03:06.232Z,55.30
2019-03-24T22:05:34.950Z,55.50
2019-03-24T22:08:03.573Z,55.80
2019-03-24T22:10:32.046Z,55.80
2019-03-24T22:13:00.526Z,56.00
2019-03-24T22:15:28.963Z,55.90
2019-03-24T22:17:57.421Z,55.90
2019-03-24T22:20:25.866Z,56.00
2019-03-24T22:22:54.642Z,55.90
2019-03-24T22:25:23.136Z,56.00
2019-03-24T22:27:51.589Z,55.90
2019-03-24T22:30:20.192Z,55.70
2019-03-24T22:32:48.661Z,55.40
2019-03-24T22:35:17.097Z,55.60
2019-03-24T22:37:45.640Z,55.90
2019-03-24T22:40:14.146Z,56.30
2019-03-24T22:42:42.609Z,56.60
2019-03-24T22:45:11.662Z,56.70
2019-03-24T22:47:40.101Z,56.60
2019-03-24T22:50:09.491Z,56.10
2019-03-24T22:52:38.118Z,57.00
2019-03-24T22:55:07.995Z,58.10
2019-03-24T22:57:36.716Z,57.80
2019-03-24T23:00:12.734Z,57.50
2019-03-24T23:02:41.635Z,56.90
2019-03-24T23:05:10.316Z,57.00
2019-03-24T23:07:38.791Z,57.90
2019-03-24T23:10:07.687Z,58.00
2019-03-24T23:12:36.222Z,57.80
2019-03-24T23:15:06.511Z,59.00
2019-03-24T23:17:34.963Z,59.00
2019-03-24T23:20:03.970Z,59.00
2019-03-24T23:22:32.395Z,59.10
2019-03-24T23:25:00.887Z,58.70
2019-03-24T23:27:29.308Z,58.50
2019-03-24T23:29:57.808Z,58.20
2019-03-24T23:32:26.273Z,58.40
2019-03-24T23:34:54.771Z,59.00
2019-03-24T23:37:23.271Z,58.90
2019-03-24T23:39:51.775Z,58.70
2019-03-24T23:42:20.577Z,59.40
2019-03-24T23:44:49.015Z,59.80
2019-03-24T23:47:17.510Z,60.10
2019-03-24T23:49:45.949Z,60.10
2019-03-24T23:52:14.384Z,59.80
2019-03-24T23:54:42.824Z,58.90
2019-03-24T23:57:11.257Z,58.30
2019-03-24T23:59:39.697Z,58.80
